KCAO/CAO METAR and TAF weather

Enter ICAO airport designator
Station Type Date Time Source
KCAO METAR 2022/08/13 10:55 UTC NOAA

KCAO 131055Z AUTO 24006KT 10SM CLR 17/09 A3024 RMK AO2 SLP169 T01670094


Station Type Date Time Source
KCAO Decoded METAR 2022/08/13 10:55 UTC NOAA

CLAYTON MUNICIPAL AIRPARK, NM, United States (KCAO) 36-27N 103-09W 1514M
Aug 13, 2022 - 06:55 AM EDT / 2022.08.13 1055 UTC
Wind: from the WSW (240 degrees) at 7 MPH (6 KT):0
Visibility: 10 mile(s):0
Sky conditions: clear
Temperature: 62.1 F (16.7 C)
Dew Point: 48.9 F (9.4 C)
Relative Humidity: 62%
Pressure (altimeter): 30.24 in. Hg (1024 hPa)
ob: KCAO 131055Z AUTO 24006KT 10SM CLR 17/09 A3024 RMK AO2 SLP169 T01670094
cycle: 11

Station Type Date Time Source
KCAO TAF UTC NOAA

Error!

Example: see airport list